Time;durP1;ratioP1;P1;durP2;ratioP2;P2;SDS_P1;SDS_P2;PMS_P1;PMS_P2;Temp;Humidity;BMP_temperature;BMP_pressure;BME280_temperature;BME280_humidity;BME280_pressure;Samples;Min_cycle;Max_cycle;Signal;HPM_P1;HPM_P2
2022/08/03 00:00:25;;;;;;;10.60;7.70;;;;;;;18.12;95.83;99192.67;105094;1275;22631;-56
2022/08/03 00:02:52;;;;;;;10.10;7.70;;;;;;;18.12;96.06;99192.44;109229;1276;22471;-57
2022/08/03 00:05:19;;;;;;;8.20;7.00;;;;;;;18.13;96.06;99195.40;109134;1276;139414;-57
2022/08/03 00:07:46;;;;;;;10.80;7.80;;;;;;;18.13;96.09;99200.37;109226;1276;22245;-57
2022/08/03 00:10:15;;;;;;;7.60;6.80;;;;;;;18.14;96.12;99203.23;109164;1275;139318;-56
2022/08/03 00:12:42;;;;;;;13.10;7.70;;;;;;;18.14;96.12;99205.37;109303;1276;22406;-56
2022/08/03 00:15:09;;;;;;;10.30;7.80;;;;;;;18.14;96.12;99205.42;109318;1274;22498;-57
2022/08/03 00:17:42;;;;;;;9.80;7.60;;;;;;;18.14;96.26;99200.63;109223;1276;138450;-56
2022/08/03 00:20:21;;;;;;;13.50;7.40;;;;;;;18.14;96.25;99196.60;109371;1274;22474;-56
2022/08/03 00:22:48;;;;;;;10.00;7.60;;;;;;;18.13;96.42;99189.17;109227;1274;139855;-56
2022/08/03 00:25:15;;;;;;;9.80;8.10;;;;;;;18.13;96.39;99189.89;109369;1274;22390;-56
2022/08/03 00:27:42;;;;;;;9.60;7.90;;;;;;;18.14;96.54;99189.60;109171;1276;138840;-56
2022/08/03 00:30:09;;;;;;;9.60;8.30;;;;;;;18.13;96.53;99189.40;109272;1276;22506;-56
2022/08/03 00:32:36;;;;;;;10.70;7.50;;;;;;;18.12;96.59;99188.21;109265;1276;22635;-55
2022/08/03 00:35:10;;;;;;;10.10;8.00;;;;;;;18.10;96.55;99188.20;109244;1274;138491;-55
2022/08/03 00:37:57;;;;;;;10.40;7.60;;;;;;;18.10;96.65;99182.92;109168;1276;23269;-56
2022/08/03 00:40:24;;;;;;;8.00;7.20;;;;;;;18.09;96.79;99181.65;109169;1274;139030;-56
2022/08/03 00:42:55;;;;;;;13.70;8.50;;;;;;;18.09;96.83;99182.75;109334;1276;22250;-56
2022/08/03 00:45:24;;;;;;;13.60;8.70;;;;;;;18.09;96.89;99184.04;109290;1276;23210;-56
2022/08/03 00:47:51;;;;;;;9.20;7.70;;;;;;;18.08;96.74;99179.37;109049;1277;138628;-56
2022/08/03 00:50:18;;;;;;;11.00;8.10;;;;;;;18.08;96.78;99184.45;109313;1276;22448;-56
2022/08/03 00:52:45;;;;;;;11.80;7.50;;;;;;;18.07;96.73;99190.19;109189;1277;139570;-56
2022/08/03 00:55:12;;;;;;;8.60;7.70;;;;;;;18.07;96.75;99196.09;109255;1276;22469;-56
2022/08/03 00:57:38;;;;;;;10.50;7.70;;;;;;;18.07;96.79;99195.32;109073;1277;138797;-56
2022/08/03 01:00:06;;;;;;;9.60;7.60;;;;;;;18.07;96.65;99196.59;109418;1274;22434;-57
2022/08/03 01:02:33;;;;;;;8.30;7.40;;;;;;;18.06;96.58;99194.54;109297;1277;23755;-56
2022/08/03 01:04:59;;;;;;;12.00;7.60;;;;;;;18.07;96.49;99194.05;109275;1274;139992;-56
2022/08/03 01:07:31;;;;;;;15.80;8.00;;;;;;;18.07;96.69;99195.39;105186;1278;25368;-56
2022/08/03 01:10:29;;;;;;;9.50;6.30;;;;;;;18.08;96.54;99193.44;104838;1277;139392;-56
2022/08/03 01:13:15;;;;;;;13.00;6.80;;;;;;;18.07;96.50;99193.56;105045;1274;24233;-55
2022/08/03 01:16:07;;;;;;;10.50;7.30;;;;;;;18.08;96.50;99193.87;104914;1276;138989;-55
2022/08/03 01:18:58;;;;;;;8.20;6.40;;;;;;;18.09;96.54;99191.38;109334;1274;22500;-56
2022/08/03 01:22:08;;;;;;;11.80;7.30;;;;;;;18.09;96.47;99190.21;109339;1274;22456;-57
2022/08/03 01:24:46;;;;;;;10.70;7.50;;;;;;;18.09;96.46;99192.25;109311;1275;23187;-57
2022/08/03 01:27:30;;;;;;;9.40;7.50;;;;;;;18.07;96.43;99194.05;109346;1274;22468;-57
2022/08/03 01:30:07;;;;;;;11.30;7.70;;;;;;;18.07;96.44;99196.00;109210;1274;22454;-57
2022/08/03 01:32:35;;;;;;;;;;;;;;;18.07;96.42;99195.67;108703;1277;520998;-57
2022/08/03 01:36:15;;;;;;;7.40;6.70;;;;;;;18.09;96.52;99201.30;101850;1309;545148;-56
2022/08/03 01:38:54;;;;;;;11.60;7.30;;;;;;;18.05;96.54;99198.28;104019;1287;24042;-57
2022/08/03 01:41:25;;;;;;;10.00;7.60;;;;;;;18.05;96.51;99199.79;104026;1286;137670;-57
2022/08/03 01:43:52;;;;;;;8.60;7.80;;;;;;;18.04;96.55;99201.13;103841;1287;24068;-57
2022/08/03 01:46:39;;;;;;;12.50;8.20;;;;;;;18.03;96.59;99198.58;103834;1287;137914;-57
2022/08/03 01:49:14;;;;;;;13.70;7.00;;;;;;;18.00;96.69;99198.77;103737;1287;339819;-57
2022/08/03 01:51:41;;;;;;;9.10;7.50;;;;;;;17.98;96.67;99200.86;103803;1289;139446;-57
2022/08/03 01:54:28;;;;;;;8.40;7.40;;;;;;;17.96;96.68;99204.05;104333;1284;22694;-57
2022/08/03 01:56:55;;;;;;;8.40;7.20;;;;;;;17.94;96.81;99204.59;104137;1284;24454;-57
2022/08/03 01:59:22;;;;;;;10.90;7.00;;;;;;;17.92;96.76;99201.66;103899;1287;137851;-57
2022/08/03 02:01:49;;;;;;;9.40;7.80;;;;;;;17.91;96.66;99200.34;104148;1284;25367;-57
2022/08/03 02:04:36;;;;;;;10.40;7.50;;;;;;;17.91;96.59;99197.28;103980;1284;138540;-57
2022/08/03 02:07:02;;;;;;;12.60;7.60;;;;;;;17.89;96.30;99194.23;104186;1284;25344;-57
2022/08/03 02:09:29;;;;;;;13.70;7.60;;;;;;;17.87;96.22;99190.51;104091;1284;23063;-57
2022/08/03 02:11:56;;;;;;;9.40;6.40;;;;;;;17.85;96.26;99189.90;104167;1286;24283;-57
2022/08/03 02:14:23;;;;;;;12.20;7.80;;;;;;;17.82;96.25;99188.58;103957;1286;22594;-56
2022/08/03 02:16:50;;;;;;;9.20;7.40;;;;;;;17.80;96.12;99192.16;104178;1286;139484;-56
2022/08/03 02:19:17;;;;;;;11.40;7.80;;;;;;;17.77;96.10;99193.66;103827;1286;22566;-56
2022/08/03 02:21:44;;;;;;;8.40;7.10;;;;;;;17.75;96.24;99194.00;103968;1286;139119;-56
2022/08/03 02:24:27;;;;;;;10.10;8.00;;;;;;;17.72;96.29;99192.70;104161;1286;24442;-56
2022/08/03 02:26:54;;;;;;;14.60;8.20;;;;;;;17.72;96.48;99198.83;104070;1286;22618;-56
2022/08/03 02:29:23;;;;;;;18.40;9.30;;;;;;;17.71;96.53;99199.02;104075;1286;139256;-56
2022/08/03 02:32:12;;;;;;;14.40;7.20;;;;;;;17.69;96.72;99202.23;104058;1286;22620;-57
2022/08/03 02:34:40;;;;;;;14.40;7.60;;;;;;;17.69;96.95;99202.36;103937;1286;137985;-57
2022/08/03 02:37:06;;;;;;;10.40;8.00;;;;;;;17.69;96.98;99199.70;104026;1287;22562;-56
2022/08/03 02:39:33;;;;;;;13.10;8.50;;;;;;;17.69;97.06;99198.77;103701;1286;138687;-57
2022/08/03 02:42:04;;;;;;;11.50;7.80;;;;;;;17.69;97.05;99203.89;104125;1286;23083;-57
2022/08/03 02:44:32;;;;;;;8.80;7.70;;;;;;;17.70;97.05;99200.85;104080;1286;25980;-57
2022/08/03 02:47:04;;;;;;;11.30;8.70;;;;;;;17.70;97.13;99202.21;103929;1287;137717;-57
2022/08/03 02:49:30;;;;;;;11.90;8.50;;;;;;;17.70;97.08;99204.98;108269;1286;23174;-58
2022/08/03 02:52:17;;;;;;;14.10;8.50;;;;;;;17.70;97.07;99202.05;108106;1286;138468;-57
2022/08/03 02:54:44;;;;;;;14.50;8.10;;;;;;;17.71;97.21;99206.83;108189;1285;22475;-58
2022/08/03 02:57:11;;;;;;;10.90;8.60;;;;;;;17.73;97.19;99209.66;108289;1285;22461;-57
2022/08/03 02:59:37;;;;;;;11.10;7.70;;;;;;;17.73;97.05;99209.50;108074;1286;138047;-57
2022/08/03 03:02:04;;;;;;;14.80;7.90;;;;;;;17.73;97.08;99206.94;108099;1286;22461;-57
2022/08/03 03:04:31;;;;;;;11.60;8.60;;;;;;;17.74;96.91;99206.27;108047;1285;138908;-56
2022/08/03 03:06:59;;;;;;;8.80;7.40;;;;;;;17.73;96.84;99205.52;108345;1286;22463;-57
2022/08/03 03:09:29;;;;;;;10.50;8.30;;;;;;;17.72;96.70;99207.75;108312;1286;22582;-56
2022/08/03 03:12:06;;;;;;;;;;;;;;;17.72;96.61;99203.62;108396;1285;23210;-57
2022/08/03 03:14:33;;;;;;;12.20;7.50;;;;;;;17.71;96.63;99203.09;108301;1286;23328;-57
2022/08/03 03:17:00;;;;;;;12.30;7.90;;;;;;;17.70;96.77;99199.08;108223;1286;137907;-57
2022/08/03 03:19:27;;;;;;;10.00;7.60;;;;;;;17.72;96.76;99202.67;108087;1286;22477;-57
2022/08/03 03:21:54;;;;;;;9.50;8.10;;;;;;;17.73;96.89;99204.19;107959;1286;139329;-57
2022/08/03 03:24:21;;;;;;;12.40;8.00;;;;;;;17.74;96.76;99211.65;108247;1285;22464;-57
2022/08/03 03:26:48;;;;;;;11.70;7.80;;;;;;;17.76;96.67;99212.31;108251;1286;22457;-57
2022/08/03 03:29:15;;;;;;;13.60;7.50;;;;;;;17.77;96.77;99211.84;108142;1287;137890;-57
2022/08/03 03:31:41;;;;;;;13.70;7.50;;;;;;;17.78;96.61;99215.23;108308;1286;22555;-57
2022/08/03 03:34:08;;;;;;;8.40;7.30;;;;;;;17.79;96.56;99215.53;108080;1287;138013;-57
2022/08/03 03:36:36;;;;;;;10.00;7.70;;;;;;;17.82;96.48;99215.65;108352;1283;22318;-58
2022/08/03 03:39:03;;;;;;;13.10;7.90;;;;;;;17.83;96.29;99216.58;108485;1283;22477;-57
2022/08/03 03:41:41;;;;;;;8.60;7.40;;;;;;;17.84;96.32;99219.17;108207;1284;138455;-57
2022/08/03 03:44:08;;;;;;;13.00;8.60;;;;;;;17.85;96.19;99221.36;108293;1284;23275;-58
2022/08/03 03:46:35;;;;;;;12.30;8.20;;;;;;;17.86;96.16;99227.46;108259;1284;139990;-55
2022/08/03 03:49:04;;;;;;;11.80;7.60;;;;;;;17.87;96.16;99231.85;108325;1284;23618;-56
2022/08/03 03:51:31;;;;;;;9.40;8.40;;;;;;;17.87;96.02;99235.09;108395;1284;138473;-57
2022/08/03 03:53:59;;;;;;;13.70;8.90;;;;;;;17.87;95.99;99236.75;108565;1283;23898;-57
2022/08/03 03:56:26;;;;;;;11.00;8.00;;;;;;;17.87;95.97;99237.47;108474;1284;22483;-56
2022/08/03 03:58:52;;;;;;;13.30;8.90;;;;;;;17.89;96.14;99241.06;108357;1283;137806;-57
2022/08/03 04:01:19;;;;;;;12.20;8.30;;;;;;;17.90;96.07;99241.77;108433;1284;23249;-57
2022/08/03 04:03:46;;;;;;;15.50;8.00;;;;;;;17.90;96.01;99244.20;108430;1283;138523;-57
2022/08/03 04:10:57;;;;;;;11.30;7.80;;;;;;;17.91;96.12;99242.98;108375;1284;23667;-56
2022/08/03 04:11:51;;;;;;;9.30;8.20;;;;;;;17.92;95.94;99246.65;108179;1284;139193;-56
2022/08/03 04:14:19;;;;;;;13.80;7.90;;;;;;;17.92;95.81;99247.57;108351;1283;23319;-56
2022/08/03 04:17:06;;;;;;;16.40;7.60;;;;;;;17.93;95.61;99247.67;108472;1282;138426;-56
2022/08/03 04:19:39;;;;;;;11.40;7.50;;;;;;;17.95;95.74;99245.48;108540;1282;22550;-57
2022/08/03 04:22:08;;;;;;;14.50;7.20;;;;;;;17.96;95.82;99245.34;108230;1284;139355;-56
2022/08/03 04:24:45;;;;;;;10.40;7.50;;;;;;;17.97;95.68;99249.89;108358;1284;22539;-57
2022/08/03 04:27:14;;;;;;;8.60;7.10;;;;;;;18.00;95.80;99254.67;108555;1283;22464;-56
2022/08/03 04:29:44;;;;;;;13.30;8.00;;;;;;;18.02;95.64;99253.13;108483;1283;137815;-56
2022/08/03 04:32:14;;;;;;;10.80;7.40;;;;;;;18.05;95.61;99254.10;108597;1283;23689;-57
2022/08/03 04:34:41;;;;;;;9.00;6.80;;;;;;;18.07;95.42;99252.95;108435;1282;139894;-57
2022/08/03 04:37:13;;;;;;;17.70;7.40;;;;;;;18.08;95.24;99254.52;108483;1283;22433;-57
2022/08/03 04:39:41;;;;;;;7.50;6.70;;;;;;;18.12;95.24;99253.71;108567;1281;138846;-56
2022/08/03 04:42:08;;;;;;;11.90;6.80;;;;;;;18.15;95.22;99254.10;108372;1282;22462;-57
2022/08/03 04:44:36;;;;;;;10.50;6.70;;;;;;;18.16;95.31;99254.48;108535;1282;22480;-56
2022/08/03 04:47:03;;;;;;;11.90;6.90;;;;;;;18.22;95.14;99262.66;108329;1282;138203;-57
2022/08/03 04:49:30;;;;;;;7.80;6.60;;;;;;;18.24;94.92;99259.86;108648;1283;22669;-56
2022/08/03 04:51:57;;;;;;;13.20;6.70;;;;;;;18.27;94.80;99260.56;108569;1282;138750;-56
2022/08/03 04:54:23;;;;;;;11.50;6.10;;;;;;;18.29;94.50;99260.52;108405;1282;22514;-56
2022/08/03 04:56:50;;;;;;;8.30;6.00;;;;;;;18.32;94.49;99263.46;105923;1283;24784;-55
2022/08/03 04:59:17;;;;;;;9.60;6.10;;;;;;;18.36;94.47;99259.77;104329;1283;138648;-55
2022/08/03 05:01:44;;;;;;;9.90;6.80;;;;;;;18.41;94.53;99259.21;104320;1283;24278;-55
2022/08/03 05:04:11;;;;;;;6.70;5.70;;;;;;;18.45;94.41;99257.63;104019;1282;140255;-55
2022/08/03 05:06:37;;;;;;;7.90;6.30;;;;;;;18.49;94.32;99258.83;104490;1283;24312;-56
2022/08/03 05:09:13;;;;;;;7.80;6.00;;;;;;;18.54;94.20;99260.13;104537;1284;22587;-55
2022/08/03 05:12:00;;;;;;;8.10;5.90;;;;;;;18.59;94.03;99260.84;104455;1283;26103;-56
2022/08/03 05:14:27;;;;;;;10.80;6.30;;;;;;;18.62;93.61;99263.51;104182;1283;24220;-55
2022/08/03 05:16:54;;;;;;;12.60;6.40;;;;;;;18.65;93.51;99262.15;104261;1283;138181;-56
2022/08/03 05:19:20;;;;;;;10.60;6.40;;;;;;;18.68;93.38;99261.91;104507;1284;22737;-55
2022/08/03 05:21:47;;;;;;;10.20;6.50;;;;;;;18.68;92.97;99259.27;104110;1283;139329;-55
2022/08/03 05:24:18;;;;;;;12.30;7.90;;;;;;;18.69;93.00;99260.89;104465;1282;22604;-55
2022/08/03 05:26:45;;;;;;;13.40;7.50;;;;;;;18.71;93.08;99260.80;104501;1282;24310;-58
2022/08/03 05:29:12;;;;;;;11.30;7.30;;;;;;;18.73;93.01;99261.75;104474;1283;138161;-58
2022/08/03 05:31:39;;;;;;;8.50;7.40;;;;;;;18.74;92.82;99262.44;104481;1283;22602;-58
2022/08/03 05:34:06;;;;;;;10.80;7.60;;;;;;;18.76;92.82;99264.81;108603;1281;140002;-56
2022/08/03 05:36:33;;;;;;;8.20;7.00;;;;;;;18.78;92.81;99265.08;108845;1280;23300;-57
2022/08/03 05:39:00;;;;;;;10.30;7.30;;;;;;;18.79;92.55;99265.82;108490;1282;23510;-56
2022/08/03 05:41:28;;;;;;;11.00;7.60;;;;;;;18.79;92.75;99268.52;108715;1281;139352;-56
2022/08/03 05:44:03;;;;;;;8.80;7.20;;;;;;;18.80;92.94;99271.35;108833;1281;22515;-55
2022/08/03 05:46:30;;;;;;;9.20;6.50;;;;;;;18.82;93.01;99274.67;108587;1281;140521;-56
2022/08/03 05:48:56;;;;;;;9.70;7.20;;;;;;;18.84;93.05;99274.30;108726;1282;22511;-56
2022/08/03 05:51:23;;;;;;;10.50;7.70;;;;;;;18.83;93.10;99274.42;108673;1281;23670;-57
2022/08/03 05:53:51;;;;;;;11.60;7.10;;;;;;;18.83;93.21;99274.55;108656;1281;139763;-57
2022/08/03 05:56:21;;;;;;;10.80;7.10;;;;;;;18.84;93.34;99276.73;108578;1282;23140;-56
2022/08/03 05:58:47;;;;;;;9.90;7.00;;;;;;;18.86;93.38;99280.94;108395;1282;138987;-56
2022/08/03 06:01:15;;;;;;;8.50;7.00;;;;;;;18.90;93.46;99280.30;108552;1282;23650;-58
2022/08/03 06:03:42;;;;;;;14.00;8.20;;;;;;;18.96;93.72;99286.75;108399;1283;139392;-57
2022/08/03 06:06:10;;;;;;;11.10;7.30;;;;;;;19.02;93.67;99286.71;108562;1282;22479;-57
2022/08/03 06:08:37;;;;;;;9.00;7.00;;;;;;;19.05;93.28;99284.43;108555;1282;23611;-57
2022/08/03 06:11:04;;;;;;;8.90;7.50;;;;;;;19.08;92.87;99282.89;108492;1282;139022;-57
2022/08/03 06:13:31;;;;;;;11.60;7.70;;;;;;;19.11;92.85;99286.93;108534;1282;22575;-57
2022/08/03 06:15:58;;;;;;;10.20;6.90;;;;;;;19.17;92.96;99291.64;108701;1282;138664;-58
2022/08/03 06:18:24;;;;;;;9.20;7.20;;;;;;;19.24;92.82;99286.23;108702;1282;22489;-57
2022/08/03 06:20:51;;;;;;;11.80;7.30;;;;;;;19.31;92.42;99287.48;108602;1282;22485;-57
2022/08/03 06:23:18;;;;;;;9.30;7.40;;;;;;;19.36;92.31;99286.15;108515;1282;139521;-57
2022/08/03 06:25:45;;;;;;;11.10;7.60;;;;;;;19.41;91.83;99288.05;108560;1283;22654;-57
2022/08/03 06:28:17;;;;;;;17.90;7.70;;;;;;;19.47;91.80;99289.15;108404;1282;139863;-57
2022/08/03 06:31:03;;;;;;;18.20;7.90;;;;;;;19.59;91.79;99287.27;108532;1281;22453;-57
2022/08/03 06:33:32;;;;;;;11.90;7.50;;;;;;;19.69;91.12;99285.14;108409;1282;139332;-57
2022/08/03 06:36:19;;;;;;;9.90;7.20;;;;;;;19.78;90.66;99289.89;106495;1283;22747;-53
2022/08/03 06:38:46;;;;;;;8.80;7.90;;;;;;;19.85;90.48;99289.52;104218;1283;25352;-53
2022/08/03 06:41:12;;;;;;;11.00;7.60;;;;;;;19.93;90.17;99291.16;104389;1282;139804;-53
2022/08/03 06:43:39;;;;;;;11.20;7.50;;;;;;;20.01;89.48;99285.55;104446;1283;23110;-54
2022/08/03 06:46:26;;;;;;;10.40;7.60;;;;;;;20.10;88.90;99290.27;104163;1283;138986;-52
2022/08/03 06:48:54;;;;;;;10.40;8.00;;;;;;;20.17;88.08;99285.92;104587;1283;26656;-53
2022/08/03 06:51:22;;;;;;;14.60;8.60;;;;;;;20.20;87.25;99284.64;108537;1282;22520;-53
2022/08/03 06:54:09;;;;;;;8.70;7.80;;;;;;;20.25;87.26;99285.31;108530;1281;22515;-53
2022/08/03 06:56:36;;;;;;;12.10;9.60;;;;;;;20.31;87.04;99281.80;108603;1282;22558;-54
2022/08/03 06:59:03;;;;;;;13.00;8.60;;;;;;;20.37;87.16;99284.42;108409;1282;138283;-53
2022/08/03 07:01:30;;;;;;;12.40;8.50;;;;;;;20.45;86.92;99282.52;108553;1282;23420;-54
2022/08/03 07:03:56;;;;;;;10.10;7.70;;;;;;;20.52;86.57;99284.41;108472;1282;138358;-54
2022/08/03 07:06:23;;;;;;;12.10;7.50;;;;;;;20.56;85.98;99286.07;106505;1282;24458;-53
2022/08/03 07:08:50;;;;;;;7.70;6.70;;;;;;;20.59;85.90;99290.34;104128;1282;23938;-53
2022/08/03 07:11:22;;;;;;;8.70;7.30;;;;;;;20.63;85.49;99296.34;104148;1282;138382;-54
2022/08/03 07:13:48;;;;;;;9.00;7.20;;;;;;;20.66;85.66;99297.20;104465;1282;22694;-54
2022/08/03 07:16:15;;;;;;;10.20;6.80;;;;;;;20.72;85.64;99294.75;104142;1283;141065;-53
2022/08/03 07:18:43;;;;;;;8.70;7.00;;;;;;;20.78;85.66;99298.12;104534;1284;22593;-56
2022/08/03 07:21:11;;;;;;;11.40;7.70;;;;;;;20.88;86.01;99301.70;104285;1283;26567;-53
2022/08/03 07:23:38;;;;;;;7.90;6.90;;;;;;;21.01;85.63;99298.59;104092;1283;139177;-54
2022/08/03 07:26:05;;;;;;;8.70;7.40;;;;;;;21.12;85.17;99304.10;104298;1283;26611;-53
2022/08/03 07:28:32;;;;;;;10.00;7.50;;;;;;;21.19;84.42;99305.71;104288;1282;138057;-53
2022/08/03 07:30:58;;;;;;;10.30;7.30;;;;;;;21.22;84.21;99302.88;104182;1283;23959;-53
2022/08/03 07:33:25;;;;;;;9.00;6.70;;;;;;;21.23;83.78;99302.21;104325;1283;25145;-53
2022/08/03 07:35:52;;;;;;;8.50;7.60;;;;;;;21.23;83.89;99308.84;108436;1282;137941;-54
2022/08/03 07:38:19;;;;;;;12.90;7.70;;;;;;;21.25;83.57;99310.10;108565;1282;22467;-54
2022/08/03 07:40:46;;;;;;;10.90;7.60;;;;;;;21.23;83.07;99301.66;108466;1282;142533;-54
2022/08/03 07:43:13;;;;;;;9.80;7.70;;;;;;;21.22;83.09;99309.14;108499;1282;22413;-53
2022/08/03 07:45:40;;;;;;;11.40;7.50;;;;;;;21.20;83.17;99315.42;108476;1282;138473;-54
2022/08/03 07:48:07;;;;;;;11.10;7.20;;;;;;;21.21;83.42;99318.21;108485;1282;22465;-54
2022/08/03 07:50:38;;;;;;;13.60;8.00;;;;;;;21.24;83.08;99319.77;108494;1282;22472;-54
2022/08/03 07:53:05;;;;;;;9.90;7.10;;;;;;;21.24;82.80;99325.08;108572;1281;140277;-54
2022/08/03 07:55:31;;;;;;;12.70;8.20;;;;;;;21.25;82.84;99327.25;108587;1283;22458;-54
2022/08/03 07:58:02;;;;;;;9.60;8.10;;;;;;;21.27;82.59;99327.48;108617;1283;138578;-53
2022/08/03 08:00:29;;;;;;;10.10;8.20;;;;;;;21.29;82.65;99326.95;108772;1282;22474;-54
2022/08/03 08:02:56;;;;;;;13.10;7.10;;;;;;;21.35;82.23;99330.98;108832;1282;23502;-54
2022/08/03 08:05:23;;;;;;;10.80;8.30;;;;;;;21.40;82.04;99330.41;108616;1282;138458;-54
2022/08/03 08:07:50;;;;;;;14.70;7.30;;;;;;;21.49;82.55;99335.28;108582;1280;23911;-53
2022/08/03 08:10:17;;;;;;;8.40;7.60;;;;;;;21.60;81.58;99332.77;108393;1282;140565;-54
2022/08/03 08:12:44;;;;;;;20.60;7.50;;;;;;;21.68;81.42;99333.73;108553;1282;22455;-53
2022/08/03 08:15:11;;;;;;;10.70;7.50;;;;;;;21.75;80.79;99331.09;108604;1282;22487;-54
2022/08/03 08:17:48;;;;;;;11.10;8.00;;;;;;;21.79;80.36;99331.23;108618;1282;138376;-54
2022/08/03 08:20:16;;;;;;;12.00;6.60;;;;;;;21.81;79.82;99330.92;108575;1282;22468;-54
2022/08/03 08:22:58;;;;;;;8.40;7.40;;;;;;;21.82;79.30;99329.84;108558;1281;138896;-54
2022/08/03 08:25:27;;;;;;;8.30;7.20;;;;;;;21.83;79.37;99333.70;108497;1282;22481;-54
2022/08/03 08:27:54;;;;;;;9.10;7.60;;;;;;;21.86;79.05;99333.97;108559;1282;138280;-54
2022/08/03 08:30:41;;;;;;;12.50;7.40;;;;;;;21.88;78.50;99337.71;108614;1280;22465;-54
2022/08/03 08:33:08;;;;;;;10.80;7.30;;;;;;;21.91;78.65;99340.56;108679;1282;22660;-54
2022/08/03 08:35:50;;;;;;;9.10;7.90;;;;;;;21.93;78.57;99343.02;108942;1279;138333;-54
2022/08/03 08:38:17;;;;;;;9.60;7.60;;;;;;;21.96;78.50;99335.75;109127;1277;24563;-54
2022/08/03 08:40:44;;;;;;;8.80;7.10;;;;;;;21.99;78.40;99339.86;108914;1279;138624;-54
2022/08/03 08:43:10;;;;;;;9.80;7.70;;;;;;;22.04;77.70;99341.35;108849;1279;22431;-54
2022/08/03 08:45:37;;;;;;;9.70;7.70;;;;;;;22.10;77.33;99342.63;108989;1277;138660;-54
2022/08/03 08:48:04;;;;;;;9.80;7.60;;;;;;;22.19;77.12;99340.11;108923;1278;22575;-54
2022/08/03 08:50:34;;;;;;;13.40;7.90;;;;;;;22.32;77.00;99338.11;109073;1277;23551;-55
2022/08/03 08:53:01;;;;;;;9.70;8.20;;;;;;;22.45;76.74;99340.18;108958;1277;138236;-55
2022/08/03 08:55:28;;;;;;;9.70;7.90;;;;;;;22.57;76.46;99342.27;109192;1277;22551;-59
2022/08/03 08:58:15;;;;;;;11.40;7.50;;;;;;;22.68;75.82;99343.08;108999;1277;139649;-55
2022/08/03 09:00:47;;;;;;;9.90;7.10;;;;;;;22.76;75.49;99347.74;108802;1279;23468;-55
2022/08/03 09:03:15;;;;;;;11.50;8.20;;;;;;;22.80;74.62;99346.86;109003;1278;23158;-55
2022/08/03 09:05:58;;;;;;;13.20;7.80;;;;;;;22.81;74.50;99346.55;108865;1279;156830;-55
2022/08/03 09:08:25;;;;;;;12.20;7.70;;;;;;;22.81;74.25;99352.77;109011;1277;22424;-55
2022/08/03 09:10:51;;;;;;;11.30;8.10;;;;;;;22.81;73.91;99352.90;108964;1279;138766;-55
2022/08/03 09:13:18;;;;;;;9.10;7.80;;;;;;;22.79;73.97;99347.94;109141;1277;22458;-54
2022/08/03 09:15:45;;;;;;;9.10;8.20;;;;;;;22.83;74.01;99352.91;108939;1279;139280;-55
2022/08/03 09:18:30;;;;;;;12.90;8.30;;;;;;;22.86;73.96;99353.44;109063;1277;23181;-55
2022/08/03 09:21:14;;;;;;;13.40;7.70;;;;;;;22.89;73.91;99347.50;109080;1277;22462;-55
2022/08/03 09:23:58;;;;;;;7.90;7.20;;;;;;;22.93;74.04;99344.14;109093;1279;22590;-55
2022/08/03 09:26:35;;;;;;;12.80;7.70;;;;;;;22.99;73.90;99346.56;109138;1277;22442;-54
2022/08/03 09:29:06;;;;;;;11.40;8.00;;;;;;;23.07;73.65;99344.05;108852;1278;139276;-55
2022/08/03 09:31:43;;;;;;;9.10;7.30;;;;;;;23.15;73.22;99338.45;109071;1277;22590;-55
2022/08/03 09:34:12;;;;;;;9.50;7.30;;;;;;;23.22;72.94;99342.20;108918;1278;142142;-54
2022/08/03 09:36:49;;;;;;;10.20;7.30;;;;;;;23.25;72.26;99346.49;108978;1279;23539;-55
2022/08/03 09:39:20;;;;;;;12.30;7.70;;;;;;;23.25;72.04;99345.55;109011;1277;22523;-55
2022/08/03 09:42:17;;;;;;;11.50;8.30;;;;;;;23.27;72.07;99351.32;108940;1279;23178;-55
2022/08/03 09:44:50;;;;;;;8.80;7.20;;;;;;;23.31;72.10;99354.71;109069;1278;22537;-54
2022/08/03 09:47:28;;;;;;;9.10;7.20;;;;;;;23.30;71.82;99357.38;108811;1279;138111;-56
2022/08/03 09:50:08;;;;;;;8.40;7.30;;;;;;;23.27;71.83;99353.80;108966;1279;23290;-55
2022/08/03 09:52:38;;;;;;;8.80;7.00;;;;;;;23.26;71.99;99351.30;108948;1279;139988;-55
2022/08/03 09:55:20;;;;;;;11.40;8.20;;;;;;;23.23;72.17;99357.24;109051;1278;22479;-55
2022/08/03 09:58:10;;;;;;;9.60;7.40;;;;;;;23.21;72.31;99359.77;109097;1277;139990;-55
2022/08/03 10:01:04;;;;;;;9.20;7.10;;;;;;;23.17;72.22;99368.33;109086;1278;23411;-55
2022/08/03 10:03:36;;;;;;;11.30;8.20;;;;;;;23.09;72.92;99372.86;108752;1279;138331;-57
2022/08/03 10:06:23;;;;;;;9.50;7.40;;;;;;;22.91;75.18;99377.67;109176;1277;23104;-53
2022/08/03 10:09:08;;;;;;;12.00;7.90;;;;;;;22.68;76.38;99380.63;109068;1278;22526;-55
2022/08/03 10:11:36;;;;;;;13.30;8.20;;;;;;;22.42;77.71;99372.77;108971;1277;138873;-54
2022/08/03 10:14:10;;;;;;;11.10;7.70;;;;;;;22.24;78.47;99373.73;109106;1277;22519;-55
2022/08/03 10:16:38;;;;;;;13.00;8.40;;;;;;;22.06;79.39;99375.89;108691;1279;138419;-55
2022/08/03 10:19:06;;;;;;;13.80;8.20;;;;;;;21.91;80.63;99371.23;109173;1278;23738;-55
2022/08/03 10:21:34;;;;;;;12.80;8.80;;;;;;;21.81;81.61;99374.56;108976;1278;139142;-55
2022/08/03 10:24:05;;;;;;;10.20;8.00;;;;;;;21.71;82.23;99374.49;109078;1277;22455;-55
2022/08/03 10:26:33;;;;;;;10.90;8.20;;;;;;;21.61;82.81;99370.61;109109;1278;22561;-55
2022/08/03 10:29:02;;;;;;;10.70;8.20;;;;;;;21.56;83.37;99378.69;109059;1278;138198;-55
2022/08/03 10:31:33;;;;;;;9.60;8.80;;;;;;;21.51;83.69;99376.23;109068;1278;22574;-55
2022/08/03 10:34:00;;;;;;;9.90;8.30;;;;;;;21.49;84.35;99373.31;108924;1277;138295;-56
2022/08/03 10:36:29;;;;;;;10.60;8.40;;;;;;;21.48;84.90;99370.20;108989;1279;22502;-55
2022/08/03 10:38:58;;;;;;;11.40;9.10;;;;;;;21.51;85.67;99370.52;108840;1279;22579;-55
2022/08/03 10:41:25;;;;;;;8.70;8.00;;;;;;;21.56;85.77;99357.42;108948;1278;140145;-55
2022/08/03 10:43:57;;;;;;;9.40;8.30;;;;;;;21.64;86.17;99356.00;108982;1279;22514;-55
2022/08/03 10:46:24;;;;;;;11.10;7.60;;;;;;;21.78;87.09;99351.88;109018;1278;139748;-55
2022/08/03 10:48:52;;;;;;;9.60;8.20;;;;;;;21.93;87.07;99347.63;109095;1277;22425;-55
2022/08/03 10:51:19;;;;;;;9.70;7.80;;;;;;;22.09;86.39;99342.09;108976;1278;22461;-55
2022/08/03 10:53:47;;;;;;;10.10;7.70;;;;;;;22.24;86.13;99338.54;109008;1278;138618;-55
2022/08/03 10:59:45;;;;;;;14.90;7.90;;;;;;;22.53;84.47;99338.10;108836;1278;138176;-56
2022/08/03 11:02:13;;;;;;;9.50;7.70;;;;;;;22.65;83.57;99337.98;109149;1277;22398;-55
2022/08/03 11:04:40;;;;;;;11.00;8.80;;;;;;;22.71;82.44;99340.33;108941;1279;138177;-56
2022/08/03 11:07:23;;;;;;;11.70;7.90;;;;;;;22.74;82.00;99333.45;109042;1277;22551;-55
2022/08/03 11:09:49;;;;;;;9.40;8.10;;;;;;;22.79;82.19;99339.46;108968;1278;138965;-55
2022/08/03 11:12:27;;;;;;;13.40;8.30;;;;;;;22.84;81.88;99332.86;109069;1278;22438;-55
2022/08/03 11:15:04;;;;;;;8.90;7.40;;;;;;;22.89;81.88;99324.98;108979;1279;22512;-55
2022/08/03 11:17:32;;;;;;;9.90;6.80;;;;;;;22.95;81.36;99325.32;104812;1278;138896;-54
2022/08/03 11:20:42;;;;;;;7.90;6.90;;;;;;;23.02;80.28;99333.35;104680;1279;22599;-55
2022/08/03 11:23:09;;;;;;;11.10;7.20;;;;;;;23.07;79.39;99335.40;104524;1279;138969;-55
2022/08/03 11:26:14;;;;;;;8.30;7.10;;;;;;;23.12;77.88;99333.27;104761;1279;22614;-55
2022/08/03 11:28:43;;;;;;;8.80;6.90;;;;;;;23.21;76.67;99324.55;104479;1279;138316;-55
2022/08/03 11:31:22;;;;;;;10.40;7.20;;;;;;;23.27;76.00;99319.56;108850;1279;22495;-56
2022/08/03 11:34:10;;;;;;;9.40;6.40;;;;;;;23.35;75.33;99317.66;109038;1278;138368;-56
2022/08/03 11:37:15;;;;;;;8.80;7.20;;;;;;;23.43;75.26;99312.84;108918;1279;22460;-56
2022/08/03 11:39:44;;;;;;;8.80;6.80;;;;;;;23.53;74.80;99312.58;108926;1279;140011;-56
2022/08/03 11:42:24;;;;;;;7.90;7.10;;;;;;;23.61;73.95;99312.13;109042;1278;22482;-55